Time;durP1;ratioP1;P1;durP2;ratioP2;P2;SDS_P1;SDS_P2;PMS_P1;PMS_P2;Temp;Humidity;BMP_temperature;BMP_pressure;BME280_temperature;BME280_humidity;BME280_pressure;Samples;Min_cycle;Max_cycle;Signal;HPM_P1;HPM_P2
2023/08/17 00:00:24;;;;;;;0.00;0.00;;;16.80;81.50;;;;;;5018955;28;20132;-68
2023/08/17 00:02:50;;;;;;;0.00;0.00;;;16.80;81.50;;;;;;5023724;28;20113;-68
2023/08/17 00:05:15;;;;;;;0.00;0.00;;;16.80;81.70;;;;;;5010012;28;20099;-68
2023/08/17 00:07:41;;;;;;;0.00;0.00;;;16.80;81.70;;;;;;5029416;28;20065;-68
2023/08/17 00:10:07;;;;;;;0.00;0.00;;;16.70;81.70;;;;;;5028705;28;20521;-69
2023/08/17 00:12:32;;;;;;;0.00;0.00;;;16.80;81.90;;;;;;5029464;28;20544;-69
2023/08/17 00:14:58;;;;;;;0.00;0.00;;;16.80;82.10;;;;;;5028388;28;20049;-68
2023/08/17 00:17:23;;;;;;;0.00;0.00;;;16.80;81.90;;;;;;5029113;28;20164;-68
2023/08/17 00:19:49;;;;;;;0.00;0.00;;;16.70;82.00;;;;;;5028944;28;20049;-68
2023/08/17 00:22:15;;;;;;;0.00;0.00;;;16.70;82.00;;;;;;5026561;28;20045;-69
2023/08/17 00:24:44;;;;;;;0.00;0.00;;;16.70;82.00;;;;;;5018668;28;20030;-68
2023/08/17 00:27:09;;;;;;;0.00;0.00;;;16.80;81.90;;;;;;5019229;28;20045;-69
2023/08/17 00:29:35;;;;;;;0.00;0.00;;;16.70;82.00;;;;;;5029092;28;20115;-68
2023/08/17 00:32:01;;;;;;;0.00;0.00;;;16.70;81.90;;;;;;5011453;28;20519;-68
2023/08/17 00:34:27;;;;;;;0.00;0.00;;;16.70;81.80;;;;;;5027884;28;20495;-68
2023/08/17 00:36:53;;;;;;;0.00;0.00;;;16.60;82.00;;;;;;5028707;28;20050;-68
2023/08/17 00:39:19;;;;;;;0.00;0.00;;;16.60;81.90;;;;;;5028628;28;20099;-69
2023/08/17 00:41:45;;;;;;;0.00;0.00;;;16.60;81.90;;;;;;5028416;28;20055;-69
2023/08/17 00:44:11;;;;;;;0.00;0.00;;;16.60;81.80;;;;;;5028787;28;20045;-69
2023/08/17 00:46:38;;;;;;;0.00;0.00;;;16.60;81.60;;;;;;5028722;28;20046;-69
2023/08/17 00:49:04;;;;;;;0.00;0.00;;;16.50;81.70;;;;;;5028588;28;20037;-69
2023/08/17 00:51:29;;;;;;;0.00;0.00;;;16.50;81.90;;;;;;5025668;28;20038;-69
2023/08/17 00:53:58;;;;;;;0.10;0.10;;;16.50;81.90;;;;;;5028449;28;20490;-69
2023/08/17 00:56:24;;;;;;;0.00;0.00;;;16.50;82.00;;;;;;5028211;28;20079;-70
2023/08/17 00:58:50;;;;;;;0.00;0.00;;;16.50;82.50;;;;;;5028491;28;20038;-68
2023/08/17 01:01:17;;;;;;;0.00;0.00;;;16.40;82.20;;;;;;5028234;28;20053;-69
2023/08/17 01:03:42;;;;;;;0.00;0.00;;;16.40;82.20;;;;;;5028811;28;20049;-69
2023/08/17 01:06:09;;;;;;;0.00;0.00;;;16.40;82.50;;;;;;5028535;28;20129;-69
2023/08/17 01:08:36;;;;;;;0.00;0.00;;;16.40;82.40;;;;;;5028809;28;20046;-68
2023/08/17 01:11:17;;;;;;;0.00;0.00;;;16.40;82.30;;;;;;5028647;28;20042;-68
2023/08/17 01:14:01;;;;;;;0.00;0.00;;;16.40;82.30;;;;;;5028560;28;20478;-69
2023/08/17 01:16:32;;;;;;;0.10;0.10;;;16.30;82.40;;;;;;5028116;28;20449;-69
2023/08/17 01:18:59;;;;;;;0.00;0.00;;;16.30;82.20;;;;;;5005990;28;20073;-68
2023/08/17 01:21:37;;;;;;;0.00;0.00;;;16.30;82.10;;;;;;5028089;28;20139;-69
2023/08/17 01:24:03;;;;;;;0.00;0.00;;;16.30;82.40;;;;;;5010651;28;20576;-68
2023/08/17 01:26:29;;;;;;;0.00;0.00;;;16.20;82.30;;;;;;5030695;28;20045;-68
2023/08/17 01:28:55;;;;;;;0.00;0.00;;;16.20;82.20;;;;;;5032351;28;20048;-69
2023/08/17 01:31:31;;;;;;;0.98;0.52;;;16.20;82.20;;;;;;5032512;28;20049;-69
2023/08/17 01:34:05;;;;;;;0.00;0.00;;;16.20;82.40;;;;;;5032234;28;20102;-69
2023/08/17 01:36:39;;;;;;;0.00;0.00;;;16.20;82.30;;;;;;5013200;28;20184;-68
2023/08/17 01:39:07;;;;;;;0.00;0.00;;;16.10;82.30;;;;;;5032029;28;20057;-69
2023/08/17 01:41:33;;;;;;;0.00;0.00;;;16.10;82.20;;;;;;5032347;28;20247;-69
2023/08/17 01:44:00;;;;;;;0.00;0.00;;;16.10;82.30;;;;;;5031975;28;20141;-68
2023/08/17 01:46:32;;;;;;;0.00;0.00;;;16.00;82.00;;;;;;5031389;28;20141;-69
2023/08/17 01:48:58;;;;;;;0.00;0.00;;;16.00;82.40;;;;;;5013858;28;20049;-69
2023/08/17 01:51:25;;;;;;;0.00;0.00;;;16.00;82.30;;;;;;5017129;28;20045;-70
2023/08/17 01:53:50;;;;;;;0.00;0.00;;;16.00;82.60;;;;;;5031660;28;20053;-69
2023/08/17 01:56:16;;;;;;;0.00;0.00;;;16.00;82.40;;;;;;5031678;28;20045;-69
2023/08/17 01:58:42;;;;;;;0.00;0.00;;;16.10;82.30;;;;;;5031390;28;20423;-69
2023/08/17 02:01:07;;;;;;;0.00;0.00;;;16.00;82.40;;;;;;5020348;28;20042;-68
2023/08/17 02:03:33;;;;;;;0.00;0.00;;;16.00;82.70;;;;;;5031733;28;20045;-69
2023/08/17 02:05:59;;;;;;;0.00;0.00;;;16.00;82.50;;;;;;5031500;28;20049;-70
2023/08/17 02:08:25;;;;;;;0.00;0.00;;;16.00;82.40;;;;;;5033161;28;20049;-69
2023/08/17 02:10:50;;;;;;;0.00;0.00;;;16.00;82.50;;;;;;5031289;28;20490;-69
2023/08/17 02:13:17;;;;;;;0.00;0.00;;;16.00;82.80;;;;;;5013332;28;20045;-69
2023/08/17 02:15:43;;;;;;;0.00;0.00;;;16.00;82.90;;;;;;5032174;28;20081;-69
2023/08/17 02:18:08;;;;;;;0.00;0.00;;;15.90;82.90;;;;;;5031917;28;20081;-68
2023/08/17 02:20:34;;;;;;;0.00;0.00;;;16.00;83.20;;;;;;5021336;28;20034;-69
2023/08/17 02:23:00;;;;;;;0.00;0.00;;;15.90;83.20;;;;;;5031552;28;20042;-68
2023/08/17 02:25:27;;;;;;;0.00;0.00;;;16.00;83.00;;;;;;5031752;28;20068;-68
2023/08/17 02:27:52;;;;;;;34.40;0.95;;;15.90;82.80;;;;;;5030783;28;20073;-68
2023/08/17 02:30:18;;;;;;;0.00;0.00;;;15.90;83.10;;;;;;5030740;28;20081;-69
2023/08/17 02:32:43;;;;;;;0.08;0.08;;;15.90;83.60;;;;;;5030821;28;20045;-69
2023/08/17 02:35:10;;;;;;;0.00;0.00;;;15.90;83.90;;;;;;5038047;28;20049;-69
2023/08/17 02:37:36;;;;;;;0.00;0.00;;;15.90;84.10;;;;;;5030011;28;20136;-69
2023/08/17 02:40:02;;;;;;;0.00;0.00;;;15.90;84.00;;;;;;5023146;28;20136;-69
2023/08/17 02:42:28;;;;;;;0.00;0.00;;;15.90;83.60;;;;;;5023738;28;20441;-69
2023/08/17 02:44:53;;;;;;;0.00;0.00;;;15.80;83.50;;;;;;5036091;28;20037;-69
2023/08/17 02:47:19;;;;;;;0.00;0.00;;;15.80;83.50;;;;;;5036722;28;20080;-68
2023/08/17 02:49:44;;;;;;;0.00;0.00;;;15.80;83.40;;;;;;5030137;28;20116;-69
2023/08/17 02:52:10;;;;;;;0.00;0.00;;;15.80;83.40;;;;;;5030477;28;20048;-69
2023/08/17 02:54:36;;;;;;;0.00;0.00;;;15.80;83.50;;;;;;5038290;28;20044;-68
2023/08/17 02:57:01;;;;;;;0.00;0.00;;;15.70;83.40;;;;;;5026989;28;20045;-69
2023/08/17 02:59:27;;;;;;;0.00;0.00;;;15.70;83.50;;;;;;5027089;28;20045;-69
2023/08/17 03:01:53;;;;;;;0.00;0.00;;;15.60;83.50;;;;;;5029920;28;20510;-69
2023/08/17 03:04:19;;;;;;;0.28;0.28;;;15.70;83.60;;;;;;5014307;28;20394;-70
2023/08/17 03:06:44;;;;;;;0.00;0.00;;;15.70;83.50;;;;;;5030708;28;20041;-69
2023/08/17 03:09:10;;;;;;;0.00;0.00;;;15.70;83.60;;;;;;5029938;28;20042;-68
2023/08/17 03:11:36;;;;;;;0.00;0.00;;;15.70;83.80;;;;;;5021112;28;20042;-70
2023/08/17 03:14:02;;;;;;;0.00;0.00;;;15.60;83.60;;;;;;5032769;28;20037;-68
2023/08/17 03:16:30;;;;;;;0.00;0.00;;;15.70;83.40;;;;;;5014165;28;20411;-70
2023/08/17 03:18:56;;;;;;;0.00;0.00;;;15.70;83.10;;;;;;5015219;28;20041;-69
2023/08/17 03:21:22;;;;;;;0.00;0.00;;;15.70;83.30;;;;;;5019016;28;20699;-69
2023/08/17 03:23:48;;;;;;;0.00;0.00;;;15.70;83.40;;;;;;5023900;28;20411;-68
2023/08/17 03:26:14;;;;;;;0.00;0.00;;;15.60;83.50;;;;;;5030053;28;20593;-68
2023/08/17 03:28:40;;;;;;;0.00;0.00;;;15.70;83.60;;;;;;5029873;28;20116;-68
2023/08/17 03:31:07;;;;;;;0.00;0.00;;;15.70;83.70;;;;;;5028581;28;20037;-69
2023/08/17 03:33:32;;;;;;;0.00;0.00;;;15.70;83.70;;;;;;5029931;28;20117;-68
2023/08/17 03:35:58;;;;;;;0.00;0.00;;;15.70;83.60;;;;;;5030315;28;20486;-69
2023/08/17 03:38:23;;;;;;;0.00;0.00;;;15.60;83.70;;;;;;5030210;28;20580;-69
2023/08/17 03:40:49;;;;;;;0.00;0.00;;;15.70;83.80;;;;;;5033993;28;20490;-69
2023/08/17 03:43:14;;;;;;;0.08;0.08;;;15.70;83.80;;;;;;5011982;28;20111;-69
2023/08/17 03:45:44;;;;;;;0.00;0.00;;;15.70;84.00;;;;;;5039387;28;20076;-69
2023/08/17 03:48:09;;;;;;;0.00;0.00;;;15.70;83.90;;;;;;5028831;28;20041;-69
2023/08/17 03:50:35;;;;;;;0.00;0.00;;;15.70;83.90;;;;;;5022539;28;20432;-69
2023/08/17 03:53:01;;;;;;;0.00;0.00;;;15.70;83.60;;;;;;5028595;28;20529;-68
2023/08/17 03:55:26;;;;;;;0.00;0.00;;;15.70;83.50;;;;;;5037517;28;20056;-68
2023/08/17 03:57:52;;;;;;;0.00;0.00;;;15.70;83.40;;;;;;5049471;28;20463;-68
2023/08/17 04:00:18;;;;;;;0.00;0.00;;;15.70;83.20;;;;;;5035960;28;20560;-69
2023/08/17 04:02:43;;;;;;;0.00;0.00;;;15.70;83.40;;;;;;5029372;28;20045;-69
2023/08/17 04:05:09;;;;;;;0.00;0.00;;;15.70;83.40;;;;;;5014669;28;20425;-68
2023/08/17 04:07:35;;;;;;;0.00;0.00;;;15.60;83.60;;;;;;5029217;28;20553;-68
2023/08/17 04:10:01;;;;;;;0.00;0.00;;;15.70;83.60;;;;;;5026789;28;20379;-68
2023/08/17 04:12:26;;;;;;;0.00;0.00;;;15.70;83.60;;;;;;5011355;28;20073;-69
2023/08/17 04:14:52;;;;;;;0.20;0.20;;;15.70;83.70;;;;;;5018756;28;20045;-69
2023/08/17 04:17:18;;;;;;;0.00;0.00;;;15.60;83.90;;;;;;5037889;28;20050;-68
2023/08/17 04:19:43;;;;;;;0.00;0.00;;;15.70;83.90;;;;;;5018846;28;20568;-68
2023/08/17 04:22:09;;;;;;;0.00;0.00;;;15.70;84.20;;;;;;5014459;28;20504;-69
2023/08/17 04:24:35;;;;;;;0.00;0.00;;;15.80;84.60;;;;;;5017745;28;20037;-69
2023/08/17 04:27:02;;;;;;;0.00;0.00;;;15.80;84.40;;;;;;5017244;28;20084;-69
2023/08/17 04:29:27;;;;;;;0.00;0.00;;;15.80;84.20;;;;;;5028936;28;20417;-68
2023/08/17 04:31:53;;;;;;;0.00;0.00;;;15.80;84.10;;;;;;5028147;28;20045;-69
2023/08/17 04:34:19;;;;;;;0.00;0.00;;;15.90;84.20;;;;;;5030750;28;20050;-68
2023/08/17 04:36:45;;;;;;;0.00;0.00;;;15.90;84.10;;;;;;5030536;28;20438;-68
2023/08/17 04:39:10;;;;;;;0.00;0.00;;;15.90;84.00;;;;;;5028785;28;20081;-69
2023/08/17 04:41:36;;;;;;;0.00;0.00;;;15.90;84.00;;;;;;5028528;28;20037;-68
2023/08/17 04:44:01;;;;;;;0.00;0.00;;;15.90;83.80;;;;;;5011263;28;20037;-68
2023/08/17 04:46:27;;;;;;;0.00;0.00;;;16.00;83.80;;;;;;5033547;28;20069;-68
2023/08/17 04:48:52;;;;;;;0.00;0.00;;;16.00;84.00;;;;;;5028870;28;20053;-69
2023/08/17 04:51:18;;;;;;;0.00;0.00;;;16.00;84.10;;;;;;5031503;28;20041;-69
2023/08/17 04:53:43;;;;;;;0.00;0.00;;;16.10;84.30;;;;;;5010606;28;20045;-69
2023/08/17 04:56:09;;;;;;;0.00;0.00;;;16.00;84.10;;;;;;5018589;28;20098;-68
2023/08/17 04:58:35;;;;;;;0.00;0.00;;;16.10;84.10;;;;;;5048844;28;20246;-69
2023/08/17 05:01:00;;;;;;;0.00;0.00;;;16.10;84.00;;;;;;5013447;28;20052;-68
2023/08/17 05:03:26;;;;;;;0.00;0.00;;;16.10;84.40;;;;;;5033262;28;20140;-68
2023/08/17 05:05:53;;;;;;;0.47;0.47;;;16.10;83.80;;;;;;5032357;28;20041;-68
2023/08/17 05:08:18;;;;;;;0.00;0.00;;;16.10;83.70;;;;;;5032425;28;20529;-68
2023/08/17 05:10:44;;;;;;;0.05;0.05;;;16.20;84.20;;;;;;5028122;28;20042;-68
2023/08/17 05:13:09;;;;;;;0.00;0.00;;;16.20;83.90;;;;;;5022390;28;20033;-68
2023/08/17 05:15:35;;;;;;;0.00;0.00;;;16.20;83.60;;;;;;5025480;28;20041;-68
2023/08/17 05:18:00;;;;;;;0.00;0.00;;;16.20;84.10;;;;;;5032278;28;20140;-68
2023/08/17 05:20:26;;;;;;;0.00;0.00;;;16.20;84.20;;;;;;5030474;28;20080;-68
2023/08/17 05:22:51;;;;;;;0.00;0.00;;;16.30;83.90;;;;;;5049889;28;20049;-68
2023/08/17 05:25:17;;;;;;;0.00;0.00;;;16.30;84.20;;;;;;5040016;28;20107;-68
2023/08/17 05:27:43;;;;;;;0.00;0.00;;;16.30;84.20;;;;;;5031742;28;20044;-68
2023/08/17 05:30:08;;;;;;;0.00;0.00;;;16.20;84.10;;;;;;5032463;28;20041;-69
2023/08/17 05:32:34;;;;;;;0.00;0.00;;;16.30;83.80;;;;;;5038590;28;20072;-68
2023/08/17 05:35:00;;;;;;;0.00;0.00;;;16.30;83.70;;;;;;5032084;28;20506;-68
2023/08/17 05:37:25;;;;;;;0.00;0.00;;;16.30;83.80;;;;;;5033052;28;20093;-68
2023/08/17 05:39:51;;;;;;;0.40;0.40;;;16.30;83.70;;;;;;5014559;28;20131;-69
2023/08/17 05:42:16;;;;;;;0.00;0.00;;;16.30;83.50;;;;;;5041876;28;20044;-68
2023/08/17 05:44:42;;;;;;;0.00;0.00;;;16.30;83.60;;;;;;5035665;28;20049;-69
2023/08/17 05:47:07;;;;;;;0.00;0.00;;;16.30;83.60;;;;;;5027796;28;20040;-68
2023/08/17 05:49:33;;;;;;;0.00;0.00;;;16.30;83.70;;;;;;5031428;28;20133;-68
2023/08/17 05:51:58;;;;;;;0.10;0.10;;;16.40;83.60;;;;;;5033847;28;20072;-68
2023/08/17 05:54:24;;;;;;;0.10;0.10;;;16.40;83.50;;;;;;5030629;28;20050;-68
2023/08/17 05:56:49;;;;;;;0.00;0.00;;;16.50;83.70;;;;;;5035212;28;20044;-68
2023/08/17 05:59:15;;;;;;;0.00;0.00;;;16.50;83.40;;;;;;5046651;28;20099;-68
2023/08/17 06:01:41;;;;;;;0.00;0.00;;;16.60;83.00;;;;;;5030764;28;20522;-68
2023/08/17 06:04:06;;;;;;;0.00;0.00;;;16.70;83.00;;;;;;5031494;28;20133;-69
2023/08/17 06:06:32;;;;;;;0.03;0.03;;;16.70;82.70;;;;;;5032169;28;20149;-68
2023/08/17 06:08:58;;;;;;;0.00;0.00;;;16.90;82.70;;;;;;5031312;28;20045;-68
2023/08/17 06:11:23;;;;;;;0.00;0.00;;;16.90;82.40;;;;;;5030648;28;20053;-69
2023/08/17 06:13:49;;;;;;;0.00;0.00;;;16.90;82.30;;;;;;5051249;28;20045;-70
2023/08/17 06:16:15;;;;;;;0.00;0.00;;;17.10;82.10;;;;;;5041362;28;20398;-67
2023/08/17 06:18:41;;;;;;;0.00;0.00;;;17.10;81.90;;;;;;5030361;28;20033;-67
2023/08/17 06:21:07;;;;;;;0.00;0.00;;;17.10;81.90;;;;;;5031341;28;20056;-68
2023/08/17 06:23:33;;;;;;;0.68;0.38;;;17.20;81.70;;;;;;5033333;28;20479;-67
2023/08/17 06:26:00;;;;;;;0.00;0.00;;;17.30;81.40;;;;;;5032617;28;20049;-67
2023/08/17 06:28:26;;;;;;;0.00;0.00;;;17.30;81.40;;;;;;5041653;28;20509;-67
2023/08/17 06:30:53;;;;;;;0.00;0.00;;;17.30;81.20;;;;;;5036474;28;20144;-68
2023/08/17 06:33:19;;;;;;;0.38;0.38;;;17.30;81.20;;;;;;5039412;28;20056;-68
2023/08/17 06:35:44;;;;;;;0.00;0.00;;;17.40;81.10;;;;;;5030669;28;20049;-67
2023/08/17 06:38:10;;;;;;;0.00;0.00;;;17.40;81.00;;;;;;5042312;28;20052;-68
2023/08/17 06:40:37;;;;;;;0.00;0.00;;;17.50;80.90;;;;;;5031491;28;20049;-67
2023/08/17 06:43:03;;;;;;;0.00;0.00;;;17.50;80.90;;;;;;5031241;28;20116;-68
2023/08/17 06:45:28;;;;;;;0.00;0.00;;;17.60;80.80;;;;;;5013998;28;20184;-68
2023/08/17 06:47:54;;;;;;;0.00;0.00;;;17.60;80.50;;;;;;5031300;28;20418;-69
2023/08/17 06:50:20;;;;;;;0.00;0.00;;;17.60;80.40;;;;;;5027687;28;20609;-68
2023/08/17 06:52:45;;;;;;;0.00;0.00;;;17.60;80.40;;;;;;5032995;28;20045;-71
2023/08/17 06:55:11;;;;;;;0.10;0.10;;;17.60;80.10;;;;;;5029197;28;20053;-68
2023/08/17 06:57:36;;;;;;;0.00;0.00;;;17.70;80.10;;;;;;5032429;28;20049;-68
2023/08/17 07:00:05;;;;;;;0.10;0.10;;;17.70;79.90;;;;;;5048000;28;20121;-68
2023/08/17 07:02:31;;;;;;;0.00;0.00;;;17.80;79.60;;;;;;5035665;28;20034;-68
2023/08/17 07:04:56;;;;;;;0.00;0.00;;;18.00;79.00;;;;;;5039758;28;20065;-68
2023/08/17 07:07:22;;;;;;;0.00;0.00;;;18.10;78.20;;;;;;5033051;28;20044;-68
2023/08/17 07:09:48;;;;;;;0.03;0.03;;;18.10;77.70;;;;;;5027781;28;20920;-68
2023/08/17 07:12:13;;;;;;;0.00;0.00;;;18.20;78.10;;;;;;5032050;28;20071;-68
2023/08/17 07:14:39;;;;;;;0.00;0.00;;;18.30;78.00;;;;;;5010059;28;20057;-68
2023/08/17 07:17:04;;;;;;;0.00;0.00;;;18.40;77.70;;;;;;5027809;28;20040;-69
2023/08/17 07:19:30;;;;;;;0.00;0.00;;;18.50;77.80;;;;;;5025549;28;20136;-67
2023/08/17 07:21:55;;;;;;;0.00;0.00;;;18.50;77.70;;;;;;5028554;28;20034;-67
2023/08/17 07:24:21;;;;;;;0.00;0.00;;;18.50;77.50;;;;;;4992605;28;20057;-67
2023/08/17 07:26:46;;;;;;;0.00;0.00;;;18.60;77.40;;;;;;5027587;28;20041;-67
2023/08/17 07:29:12;;;;;;;0.63;0.63;;;18.60;77.40;;;;;;5032067;28;20066;-66
2023/08/17 07:31:38;;;;;;;0.00;0.00;;;18.60;77.40;;;;;;5035443;28;20409;-67
2023/08/17 07:34:08;;;;;;;0.00;0.00;;;18.60;77.30;;;;;;5028892;28;20061;-66
2023/08/17 07:36:39;;;;;;;0.05;0.05;;;18.70;77.60;;;;;;5033181;28;20047;-66
2023/08/17 07:39:07;;;;;;;0.00;0.00;;;18.70;77.10;;;;;;5038924;28;20049;-70
2023/08/17 07:41:33;;;;;;;0.00;0.00;;;18.70;76.00;;;;;;5037233;28;20634;-68
2023/08/17 07:43:59;;;;;;;0.00;0.00;;;18.70;75.80;;;;;;5036576;28;20048;-68
2023/08/17 07:46:24;;;;;;;0.00;0.00;;;18.80;76.30;;;;;;5029184;28;20112;-67
2023/08/17 07:48:50;;;;;;;0.00;0.00;;;18.70;76.80;;;;;;5029277;28;20045;-68
2023/08/17 07:51:16;;;;;;;0.00;0.00;;;18.80;76.70;;;;;;5031654;28;20131;-68
2023/08/17 07:53:41;;;;;;;0.00;0.00;;;18.80;76.70;;;;;;5033790;28;20033;-69
2023/08/17 07:56:07;;;;;;;1.33;1.23;;;18.80;76.80;;;;;;5033738;28;20788;-66
2023/08/17 07:58:32;;;;;;;0.25;0.20;;;18.90;76.70;;;;;;5041769;28;20045;-68
2023/08/17 08:00:58;;;;;;;0.00;0.00;;;18.90;76.60;;;;;;5012151;28;20052;-69
2023/08/17 08:03:23;;;;;;;0.00;0.00;;;18.90;75.70;;;;;;5028965;28;20132;-69
2023/08/17 08:05:49;;;;;;;0.00;0.00;;;18.90;75.60;;;;;;5028916;28;20132;-67
2023/08/17 08:08:17;;;;;;;0.00;0.00;;;18.90;75.30;;;;;;5029722;28;20103;-69
2023/08/17 08:10:42;;;;;;;0.00;0.00;;;18.90;75.90;;;;;;5029224;28;20085;-68
2023/08/17 08:13:08;;;;;;;0.00;0.00;;;18.90;76.10;;;;;;5028371;28;20081;-67
2023/08/17 08:15:34;;;;;;;0.00;0.00;;;18.80;75.90;;;;;;5028369;28;20045;-66
2023/08/17 08:17:59;;;;;;;0.45;0.45;;;18.80;75.70;;;;;;5027406;28;20076;-72
2023/08/17 08:20:25;;;;;;;0.00;0.00;;;18.70;75.80;;;;;;5011582;28;20130;-69
2023/08/17 08:22:50;;;;;;;0.00;0.00;;;18.70;75.90;;;;;;5032071;28;20046;-68
2023/08/17 08:25:16;;;;;;;0.00;0.00;;;18.80;76.00;;;;;;5037906;28;20076;-69
2023/08/17 08:27:41;;;;;;;0.00;0.00;;;18.70;76.00;;;;;;5028131;28;20453;-68
2023/08/17 08:30:07;;;;;;;0.10;0.10;;;18.80;76.10;;;;;;5028784;28;20692;-69
2023/08/17 08:32:33;;;;;;;0.80;0.80;;;18.80;76.10;;;;;;5028075;28;20045;-69
2023/08/17 08:34:59;;;;;;;0.00;0.00;;;18.80;76.30;;;;;;5030847;28;20050;-69
2023/08/17 08:37:24;;;;;;;0.00;0.00;;;18.80;76.40;;;;;;5039148;28;20053;-68
2023/08/17 08:39:51;;;;;;;0.00;0.00;;;18.80;76.50;;;;;;5029436;28;20045;-70
2023/08/17 08:42:21;;;;;;;0.00;0.00;;;18.90;76.00;;;;;;5010956;28;20050;-68
2023/08/17 08:44:47;;;;;;;0.00;0.00;;;19.00;76.00;;;;;;5024355;28;20064;-69
2023/08/17 08:47:16;;;;;;;0.00;0.00;;;19.00;75.90;;;;;;5027660;28;20851;-68
2023/08/17 08:50:05;;;;;;;0.00;0.00;;;19.00;75.70;;;;;;5028162;28;20095;-68
2023/08/17 08:52:39;;;;;;;0.15;0.10;;;19.00;75.80;;;;;;5032762;28;20054;-68
2023/08/17 08:55:12;;;;;;;0.00;0.00;;;19.00;75.80;;;;;;5047266;28;20049;-68
2023/08/17 08:57:38;;;;;;;0.00;0.00;;;19.10;76.20;;;;;;4986606;28;20066;-68
2023/08/17 09:00:05;;;;;;;0.00;0.00;;;19.20;76.00;;;;;;5014289;28;20092;-69
2023/08/17 09:02:32;;;;;;;0.00;0.00;;;19.30;76.00;;;;;;5028209;28;20052;-69
2023/08/17 09:04:59;;;;;;;0.00;0.00;;;19.30;74.70;;;;;;5017340;28;20133;-69
2023/08/17 09:07:27;;;;;;;0.00;0.00;;;19.30;74.70;;;;;;5027384;28;20050;-68
2023/08/17 09:09:52;;;;;;;0.00;0.00;;;19.40;74.40;;;;;;4993883;28;20046;-69
2023/08/17 09:12:18;;;;;;;0.00;0.00;;;19.40;73.80;;;;;;5028127;28;20131;-69
2023/08/17 09:14:44;;;;;;;0.00;0.00;;;19.30;73.80;;;;;;5027822;28;20048;-69
2023/08/17 09:17:09;;;;;;;0.63;0.63;;;19.50;74.60;;;;;;5027831;28;20061;-68
2023/08/17 09:19:36;;;;;;;0.30;0.30;;;19.50;73.90;;;;;;5017172;28;20053;-69
2023/08/17 09:22:02;;;;;;;0.00;0.00;;;19.50;73.90;;;;;;5028356;28;20430;-69
2023/08/17 09:24:37;;;;;;;0.75;0.75;;;19.50;74.30;;;;;;5028623;28;20057;-69
2023/08/17 09:27:03;;;;;;;0.00;0.00;;;19.50;74.40;;;;;;5010363;28;20115;-68
2023/08/17 09:29:33;;;;;;;0.00;0.00;;;19.50;74.20;;;;;;5029457;28;20053;-68
2023/08/17 09:32:05;;;;;;;0.00;0.00;;;19.50;74.00;;;;;;5029542;28;20057;-69
2023/08/17 09:34:31;;;;;;;0.00;0.00;;;19.60;74.20;;;;;;4994001;28;20053;-69
2023/08/17 09:37:03;;;;;;;0.00;0.00;;;19.60;74.40;;;;;;5028321;28;20045;-68
2023/08/17 09:39:28;;;;;;;0.00;0.00;;;19.70;74.50;;;;;;5028326;28;20075;-68
2023/08/17 09:41:55;;;;;;;0.00;0.00;;;19.80;74.30;;;;;;5026762;28;20049;-70
2023/08/17 09:44:24;;;;;;;0.00;0.00;;;19.90;74.30;;;;;;5028144;28;20085;-69
2023/08/17 09:46:56;;;;;;;0.00;0.00;;;19.90;73.40;;;;;;5030141;28;20164;-69
2023/08/17 09:49:25;;;;;;;0.00;0.00;;;20.00;73.50;;;;;;5030244;28;20041;-69
2023/08/17 09:51:52;;;;;;;0.00;0.00;;;19.90;73.00;;;;;;5028786;28;20075;-70
2023/08/17 09:54:23;;;;;;;0.00;0.00;;;19.90;73.30;;;;;;5017738;28;20478;-70
2023/08/17 09:56:50;;;;;;;0.00;0.00;;;20.00;73.50;;;;;;5030399;28;20053;-69
2023/08/17 09:59:16;;;;;;;0.00;0.00;;;20.00;73.40;;;;;;5030836;28;20041;-70
2023/08/17 10:01:48;;;;;;;0.00;0.00;;;20.00;73.10;;;;;;5031641;28;20576;-70
2023/08/17 10:04:15;;;;;;;0.00;0.00;;;20.00;73.40;;;;;;5033709;28;20103;-70
2023/08/17 10:06:48;;;;;;;0.00;0.00;;;20.10;72.60;;;;;;5030646;28;20041;-70
2023/08/17 10:09:19;;;;;;;0.35;0.35;;;20.10;72.40;;;;;;5030039;28;20121;-69
2023/08/17 10:11:45;;;;;;;;;;;20.00;72.50;;;;;;5011914;28;20084;-70
2023/08/17 10:14:21;;;;;;;0.00;0.00;;;20.00;72.60;;;;;;5029643;28;19964;-69
2023/08/17 10:16:59;;;;;;;0.00;0.00;;;20.00;73.00;;;;;;5040572;28;20410;-71
2023/08/17 10:19:36;;;;;;;0.00;0.00;;;20.10;72.90;;;;;;5049605;28;20040;-72
2023/08/17 10:22:23;;;;;;;0.10;0.10;;;20.10;73.30;;;;;;5038083;28;20494;-72
2023/08/17 10:24:51;;;;;;;0.00;0.00;;;20.10;72.80;;;;;;5030717;28;20057;-71
2023/08/17 10:27:17;;;;;;;0.00;0.00;;;20.10;73.00;;;;;;5031309;28;20041;-73
2023/08/17 10:29:44;;;;;;;0.00;0.00;;;20.10;73.10;;;;;;5012530;28;20095;-71
2023/08/17 10:32:11;;;;;;;0.00;0.00;;;20.20;73.10;;;;;;5030749;28;20119;-72
2023/08/17 10:34:38;;;;;;;0.00;0.00;;;20.30;72.40;;;;;;5031111;28;20629;-72
2023/08/17 10:37:04;;;;;;;0.00;0.00;;;20.20;72.40;;;;;;5031366;28;20118;-72
2023/08/17 10:39:30;;;;;;;0.00;0.00;;;20.20;72.40;;;;;;5031077;28;20096;-71
2023/08/17 10:41:57;;;;;;;0.00;0.00;;;20.20;72.70;;;;;;5030023;28;20412;-72
2023/08/17 10:44:42;;;;;;;0.00;0.00;;;20.10;72.70;;;;;;5025373;28;20041;-71
2023/08/17 10:47:26;;;;;;;0.00;0.00;;;20.10;72.70;;;;;;5028960;28;20049;-71
2023/08/17 10:50:03;;;;;;;0.10;0.10;;;20.30;72.80;;;;;;5030669;28;20129;-71
2023/08/17 10:52:30;;;;;;;0.00;0.00;;;20.30;72.20;;;;;;5031108;28;20053;-72
2023/08/17 10:54:56;;;;;;;0.00;0.00;;;20.30;71.70;;;;;;5030958;28;20486;-72
2023/08/17 10:57:27;;;;;;;0.00;0.00;;;20.30;72.10;;;;;;5031053;28;20124;-72
2023/08/17 11:00:34;;;;;;;0.00;0.00;;;20.30;72.10;;;;;;5030055;28;20038;-72
2023/08/17 11:03:05;;;;;;;0.00;0.00;;;20.20;72.10;;;;;;5013559;28;20064;-71
2023/08/17 11:05:36;;;;;;;0.00;0.00;;;20.20;72.00;;;;;;5030520;28;20045;-71
2023/08/17 11:08:02;;;;;;;0.00;0.00;;;20.30;72.00;;;;;;5030705;28;20053;-71
2023/08/17 11:10:31;;;;;;;0.00;0.00;;;20.40;72.40;;;;;;5030852;28;20044;-72
2023/08/17 11:12:59;;;;;;;0.00;0.00;;;20.50;72.10;;;;;;5030468;28;20505;-72
2023/08/17 11:15:49;;;;;;;0.00;0.00;;;20.50;72.30;;;;;;5027854;28;20066;-71
2023/08/17 11:18:48;;;;;;;0.00;0.00;;;20.60;72.00;;;;;;4986278;28;20093;-71
2023/08/17 11:21:17;;;;;;;0.00;0.00;;;20.70;72.20;;;;;;5015757;28;20128;-70
2023/08/17 11:23:43;;;;;;;0.00;0.00;;;20.80;72.00;;;;;;5029179;28;20460;-71
2023/08/17 11:26:09;;;;;;;0.30;0.30;;;20.90;72.40;;;;;;5029220;28;20061;-71
2023/08/17 11:28:40;;;;;;;0.00;0.00;;;21.00;72.10;;;;;;5025876;28;20053;-71
2023/08/17 11:31:06;;;;;;;;;;;21.10;71.40;;;;;;5012613;28;20050;-71
2023/08/17 11:33:33;;;;;;;0.00;0.00;;;21.10;70.90;;;;;;5027443;28;19947;-70
2023/08/17 11:36:05;;;;;;;0.00;0.00;;;21.10;71.10;;;;;;5022092;28;20392;-71
2023/08/17 11:38:39;;;;;;;0.00;0.00;;;21.10;71.30;;;;;;5027452;28;20065;-71
2023/08/17 11:41:08;;;;;;;0.00;0.00;;;21.20;71.20;;;;;;5029548;28;20145;-71
2023/08/17 11:43:37;;;;;;;0.00;0.00;;;21.10;71.00;;;;;;5027521;28;20057;-71
2023/08/17 11:46:05;;;;;;;0.00;0.00;;;21.20;71.30;;;;;;5028959;28;20076;-71
2023/08/17 11:48:31;;;;;;;0.00;0.00;;;21.10;70.90;;;;;;5029271;28;20399;-71
2023/08/17 11:50:57;;;;;;;0.00;0.00;;;21.20;70.90;;;;;;5012113;28;20402;-71
2023/08/17 11:53:23;;;;;;;1.27;0.55;;;21.10;71.20;;;;;;5027992;28;20057;-72
2023/08/17 11:55:49;;;;;;;0.00;0.00;;;21.10;71.00;;;;;;5028533;28;20049;-71
2023/08/17 11:58:16;;;;;;;0.00;0.00;;;21.20;71.00;;;;;;5017073;28;20045;-71
2023/08/17 12:00:46;;;;;;;0.10;0.10;;;21.30;70.70;;;;;;5025319;28;20077;-71
2023/08/17 12:03:15;;;;;;;0.00;0.00;;;21.30;70.10;;;;;;5023379;28;20118;-71
2023/08/17 12:05:43;;;;;;;0.00;0.00;;;21.30;70.00;;;;;;5026343;28;20563;-71
2023/08/17 12:08:09;;;;;;;0.00;0.00;;;21.40;70.50;;;;;;5026487;28;20065;-70
2023/08/17 12:10:37;;;;;;;0.10;0.10;;;21.30;70.10;;;;;;5026702;28;20053;-70
2023/08/17 12:13:03;;;;;;;0.00;0.00;;;21.40;70.20;;;;;;5024695;28;20063;-71
2023/08/17 12:15:35;;;;;;;0.03;0.03;;;21.20;70.60;;;;;;5020625;28;20057;-70
2023/08/17 12:18:03;;;;;;;0.00;0.00;;;21.30;70.50;;;;;;5026131;28;20061;-71
2023/08/17 12:20:30;;;;;;;0.00;0.00;;;21.20;70.90;;;;;;5026536;28;20506;-71
2023/08/17 12:22:58;;;;;;;0.00;0.00;;;21.20;70.60;;;;;;5030281;28;20510;-70
2023/08/17 12:25:24;;;;;;;0.00;0.00;;;21.20;70.50;;;;;;5025638;28;20038;-70
2023/08/17 12:27:50;;;;;;;1.70;0.95;;;21.20;70.70;;;;;;5025266;28;20399;-70
2023/08/17 12:30:25;;;;;;;0.00;0.00;;;21.20;71.20;;;;;;5026305;28;20056;-71
2023/08/17 12:32:50;;;;;;;0.10;0.10;;;21.20;71.00;;;;;;5025465;28;20438;-71
2023/08/17 12:35:16;;;;;;;0.00;0.00;;;21.20;71.50;;;;;;5026165;28;20049;-70
2023/08/17 12:37:42;;;;;;;0.00;0.00;;;21.20;71.30;;;;;;5026617;28;20053;-71
2023/08/17 12:40:09;;;;;;;0.20;0.20;;;21.20;71.50;;;;;;5027057;28;20142;-70
2023/08/17 12:42:35;;;;;;;0.00;0.00;;;21.20;71.70;;;;;;5026665;28;20065;-70
2023/08/17 12:45:01;;;;;;;0.00;0.00;;;21.20;71.80;;;;;;4993489;28;20041;-70
2023/08/17 12:47:26;;;;;;;0.00;0.00;;;21.20;72.00;;;;;;5027143;28;20123;-70